createdAt,value
2023-11-18T00:04:35.498Z,0.7
2023-11-18T00:14:31.579Z,0.6
2023-11-18T00:19:31.652Z,0.6
2023-11-18T00:29:31.616Z,0.7
2023-11-18T00:34:32.094Z,0.6
2023-11-18T00:44:32.916Z,0.6
2023-11-18T00:49:29.251Z,0.7
2023-11-18T00:59:28.866Z,0.6
2023-11-18T01:04:29.073Z,0.6
2023-11-18T01:14:29.355Z,0.6
2023-11-18T01:19:28.965Z,0.6
2023-11-18T01:29:27.297Z,0.7
2023-11-18T01:34:27.546Z,0.6
2023-11-18T01:44:28.020Z,0.6
2023-11-18T01:49:27.175Z,0.6
2023-11-18T01:59:27.275Z,0.7
2023-11-18T02:01:29.221Z,0.7
2023-11-18T02:10:49.799Z,0.6
2023-11-18T02:25:49.183Z,0.6
2023-11-18T02:40:49.232Z,0.6
2023-11-18T02:45:49.330Z,0.6
2023-11-18T02:55:57.798Z,0.7
2023-11-18T03:05:18.674Z,0.7
2023-11-18T03:10:18.574Z,0.7
2023-11-18T03:20:18.868Z,0.7
2023-11-18T03:25:18.688Z,0.7
2023-11-18T03:35:16.299Z,0.6
2023-11-18T03:40:16.243Z,0.7
2023-11-18T03:50:15.826Z,0.6
2023-11-18T03:55:15.944Z,0.6
2023-11-18T03:59:52.822Z,0.6
2023-11-18T04:04:52.996Z,0.6
2023-11-18T04:19:54.735Z,0.6
2023-11-18T04:24:49.817Z,0.8
2023-11-18T04:34:49.562Z,1
2023-11-18T04:39:49.802Z,1
2023-11-18T04:44:49.738Z,0.9
2023-11-18T04:49:50.688Z,0.8
2023-11-18T04:59:30.416Z,0.7
2023-11-18T05:04:30.430Z,0.7
2023-11-18T05:14:30.701Z,0.7
2023-11-18T05:19:30.082Z,0.7
2023-11-18T05:29:28.368Z,0.7
2023-11-18T05:34:27.604Z,0.7
2023-11-18T05:44:28.450Z,0.7
2023-11-18T05:49:29.953Z,0.7
2023-11-18T05:59:27.966Z,0.7
2023-11-18T06:04:27.973Z,0.8
2023-11-18T06:14:25.306Z,1.3
2023-11-18T06:19:24.580Z,2.3
2023-11-18T06:29:24.868Z,6.1
2023-11-18T06:34:25.064Z,9.7
2023-11-18T06:44:25.896Z,14.9
2023-11-18T06:49:26.025Z,17
2023-11-18T06:59:23.201Z,26
2023-11-18T07:01:25.381Z,28.8
2023-11-18T07:10:56.076Z,57
2023-11-18T07:25:53.752Z,40.7
2023-11-18T07:40:54.673Z,54.4
2023-11-18T07:55:56.436Z,56.1
2023-11-18T08:05:17.502Z,71.9
2023-11-18T08:10:17.633Z,67.5
2023-11-18T08:20:17.518Z,81
2023-11-18T08:25:17.188Z,81.6
2023-11-18T08:30:18.289Z,86.6
2023-11-18T08:35:14.773Z,94.2
2023-11-18T08:40:14.478Z,92.6
2023-11-18T08:50:14.775Z,97.6
2023-11-18T08:55:14.437Z,102.6
2023-11-18T09:04:48.955Z,115.5
2023-11-18T09:19:57.851Z,135
2023-11-18T09:34:58.208Z,151.5
2023-11-18T09:49:57.956Z,145.7
2023-11-18T10:04:57.019Z,152.3
2023-11-18T10:19:54.912Z,151.2
2023-11-18T10:34:56.093Z,112.1
2023-11-18T10:49:57.771Z,102.1
2023-11-18T10:59:53.541Z,103.3
2023-11-18T11:04:53.790Z,91.9
2023-11-18T11:19:54.285Z,108.4
2023-11-18T11:29:40.569Z,92
2023-11-18T11:34:40.576Z,86.9
2023-11-18T11:44:41.234Z,89.7
2023-11-18T11:49:40.363Z,92.3
2023-11-18T11:59:40.461Z,66.6
2023-11-18T12:04:37.714Z,63.2
2023-11-18T12:14:36.780Z,54.1
2023-11-18T12:19:36.886Z,62.6
2023-11-18T12:29:36.758Z,46.3
2023-11-18T12:34:37.032Z,44.5
2023-11-18T12:44:38.262Z,81.1
2023-11-18T12:49:34.311Z,81.1
2023-11-18T12:59:34.462Z,58.5
2023-11-18T13:04:35.174Z,60.1
2023-11-18T13:14:34.917Z,50.2
2023-11-18T13:19:35.182Z,58.6
2023-11-18T13:29:32.469Z,66.4
2023-11-18T13:34:32.257Z,68.2
2023-11-18T13:44:32.389Z,76.7
2023-11-18T13:49:32.177Z,91.9
2023-11-18T13:59:32.198Z,88.1
2023-11-18T14:04:32.380Z,81.5
2023-11-18T14:14:30.224Z,49.6
2023-11-18T14:19:29.755Z,48.7
2023-11-18T14:29:30.013Z,32.5
2023-11-18T14:34:29.668Z,32.6
2023-11-18T14:44:29.849Z,29.5
2023-11-18T14:49:29.846Z,27.3
2023-11-18T14:54:27.428Z,23.7
2023-11-18T14:59:27.240Z,24.2
2023-11-18T15:01:29.741Z,22.7
2023-11-18T15:05:49.320Z,16.3
2023-11-18T15:10:48.995Z,13.2
2023-11-18T15:25:49.230Z,7.7
2023-11-18T15:40:57.962Z,2.4
2023-11-18T15:50:48.706Z,3.3
2023-11-18T15:55:58.581Z,2.6
2023-11-18T16:05:19.835Z,0.9
2023-11-18T16:10:19.286Z,0.9
2023-11-18T16:20:19.663Z,0.9
2023-11-18T16:25:19.314Z,0.9
2023-11-18T16:35:19.241Z,0.8
2023-11-18T16:40:22.741Z,0.8
2023-11-18T16:50:31.155Z,0.9
2023-11-18T16:55:26.229Z,0.8
2023-11-18T16:59:52.704Z,0.8
2023-11-18T17:04:52.581Z,0.9
2023-11-18T17:19:52.614Z,0.9
2023-11-18T17:34:49.494Z,0.8
2023-11-18T17:49:53.626Z,0.8
2023-11-18T17:59:33.043Z,0.8
2023-11-18T18:04:32.988Z,0.8
2023-11-18T18:14:32.184Z,0.8
2023-11-18T18:19:32.110Z,0.8
2023-11-18T18:29:32.500Z,0.9
2023-11-18T18:34:32.800Z,0.8
2023-11-18T18:44:32.540Z,0.9
2023-11-18T18:49:31.125Z,0.9
2023-11-18T18:59:31.310Z,0.9
2023-11-18T19:04:31.595Z,0.9
2023-11-18T19:14:31.020Z,0.8
2023-11-18T19:19:30.898Z,0.8
2023-11-18T19:29:30.920Z,0.8
2023-11-18T19:34:28.353Z,0.9
2023-11-18T19:44:27.529Z,0.9
2023-11-18T19:49:27.740Z,0.8
2023-11-18T19:59:28.320Z,0.9
2023-11-18T20:01:34.072Z,0.8
2023-11-18T20:10:49.815Z,0.8
2023-11-18T20:15:49.329Z,0.9
2023-11-18T20:25:49.532Z,0.8
2023-11-18T20:30:49.339Z,0.8
2023-11-18T20:40:49.864Z,0.8
2023-11-18T20:55:58.316Z,0.8
2023-11-18T21:05:19.878Z,0.8
2023-11-18T21:10:18.534Z,0.8
2023-11-18T21:20:18.916Z,0.8
2023-11-18T21:25:18.514Z,0.9
2023-11-18T21:30:16.460Z,0.8
2023-11-18T21:35:16.110Z,0.8
2023-11-18T21:40:15.430Z,0.9
2023-11-18T21:50:22.648Z,0.6
2023-11-18T21:55:15.091Z,0.7
2023-11-18T22:04:52.273Z,0.6
2023-11-18T22:09:52.088Z,0.7
2023-11-18T22:19:49.033Z,0.7
2023-11-18T22:34:48.816Z,0.6
2023-11-18T22:49:49.108Z,0.6
2023-11-18T22:54:49.999Z,0.7
2023-11-18T22:59:29.525Z,0.8
2023-11-18T23:04:29.298Z,1.1
2023-11-18T23:14:29.087Z,1.1
2023-11-18T23:19:30.576Z,1.1
2023-11-18T23:29:29.485Z,1.2
2023-11-18T23:34:30.697Z,1.4
2023-11-18T23:44:26.744Z,2.4
2023-11-18T23:49:26.538Z,1
2023-11-18T23:59:26.720Z,1.2
